Time;durP1;ratioP1;P1;durP2;ratioP2;P2;SDS_P1;SDS_P2;PMS_P1;PMS_P2;Temp;Humidity;BMP_temperature;BMP_pressure;BME280_temperature;BME280_humidity;BME280_pressure;Samples;Min_cycle;Max_cycle;Signal;HPM_P1;HPM_P2
2022/05/11 00:00:16;;;;;;;10.93;9.82;;;18.30;95.70;;;;;;2080056;28;21061;-74
2022/05/11 00:01:17;;;;;;;10.95;9.77;;;18.30;95.70;;;;;;2080623;28;20030;-74
2022/05/11 00:02:18;;;;;;;11.00;9.90;;;18.30;95.80;;;;;;2080691;28;20022;-74
2022/05/11 00:03:20;;;;;;;11.15;9.80;;;18.20;95.80;;;;;;2079896;28;20025;-74
2022/05/11 00:04:21;;;;;;;11.05;9.95;;;18.20;95.80;;;;;;2063587;28;20045;-74
2022/05/11 00:05:23;;;;;;;11.02;10.00;;;18.20;95.80;;;;;;2071851;28;20421;-74
2022/05/11 00:06:25;;;;;;;10.63;9.52;;;18.20;95.90;;;;;;2080028;28;20081;-74
2022/05/11 00:07:26;;;;;;;11.55;10.35;;;18.20;96.00;;;;;;2072071;28;20041;-74
2022/05/11 00:08:26;;;;;;;11.48;10.27;;;18.20;96.00;;;;;;2071694;28;20384;-74
2022/05/11 00:09:27;;;;;;;11.23;10.13;;;18.20;96.00;;;;;;2071740;28;20106;-74
2022/05/11 00:10:29;;;;;;;10.85;9.80;;;18.20;96.10;;;;;;2079841;28;20395;-74
2022/05/11 00:11:30;;;;;;;10.98;9.77;;;18.20;96.10;;;;;;2080485;28;20028;-74
2022/05/11 00:12:30;;;;;;;11.00;9.90;;;18.20;96.00;;;;;;2080731;28;20030;-74
2022/05/11 00:13:32;;;;;;;11.15;9.95;;;18.10;95.80;;;;;;2080047;28;20476;-74
2022/05/11 00:14:32;;;;;;;11.32;10.13;;;18.20;95.80;;;;;;2079806;28;20151;-74
2022/05/11 00:15:34;;;;;;;11.02;9.93;;;18.20;95.60;;;;;;2079783;28;20431;-74
2022/05/11 00:16:35;;;;;;;10.55;9.55;;;18.20;95.30;;;;;;2072007;28;20038;-74
2022/05/11 00:17:35;;;;;;;11.40;10.23;;;18.20;95.10;;;;;;2079912;28;20392;-74
2022/05/11 00:18:36;;;;;;;11.32;10.20;;;18.20;95.00;;;;;;2079867;28;20021;-74
2022/05/11 00:19:37;;;;;;;12.38;9.75;;;18.20;95.00;;;;;;2079771;28;20071;-74
2022/05/11 00:20:39;;;;;;;11.80;10.23;;;18.20;94.90;;;;;;2080296;28;20013;-74
2022/05/11 00:21:39;;;;;;;10.70;9.70;;;18.20;94.80;;;;;;2072818;28;20508;-74
2022/05/11 00:22:40;;;;;;;10.63;9.60;;;18.20;94.70;;;;;;2080640;28;20034;-74
2022/05/11 00:23:40;;;;;;;10.35;9.35;;;18.20;94.70;;;;;;2071771;28;20448;-74
2022/05/11 00:24:41;;;;;;;10.45;9.40;;;18.20;94.70;;;;;;2071577;28;20037;-74
2022/05/11 00:25:44;;;;;;;10.10;9.10;;;18.20;94.70;;;;;;2080467;28;20119;-74
2022/05/11 00:26:45;;;;;;;10.23;9.13;;;18.20;94.60;;;;;;2080081;28;20044;-74
2022/05/11 00:27:45;;;;;;;10.30;9.30;;;18.20;94.60;;;;;;2071787;28;20465;-74
2022/05/11 00:28:46;;;;;;;9.85;8.85;;;18.20;94.60;;;;;;2080028;28;20036;-74
2022/05/11 00:29:47;;;;;;;10.30;9.20;;;18.20;94.60;;;;;;2080100;28;20042;-74
2022/05/11 00:30:48;;;;;;;9.75;8.85;;;18.20;94.60;;;;;;2080197;28;20439;-74
2022/05/11 00:31:48;;;;;;;10.82;9.32;;;18.20;94.50;;;;;;2071846;28;20034;-74
2022/05/11 00:32:53;;;;;;;9.55;8.57;;;18.10;94.50;;;;;;2080105;28;20022;-74
2022/05/11 00:33:54;;;;;;;9.35;8.45;;;18.10;94.60;;;;;;2080413;28;20025;-74
2022/05/11 00:34:55;;;;;;;9.73;8.73;;;18.10;94.70;;;;;;2080265;28;20056;-74
2022/05/11 00:35:56;;;;;;;9.55;8.65;;;18.10;94.80;;;;;;2080323;28;20388;-74
2022/05/11 00:36:59;;;;;;;9.15;8.25;;;18.10;94.80;;;;;;2080488;28;20029;-74
2022/05/11 00:38:01;;;;;;;9.35;8.55;;;18.10;95.00;;;;;;2080444;28;20771;-74
2022/05/11 00:39:02;;;;;;;10.02;9.02;;;18.00;95.10;;;;;;2079671;28;20028;-74
2022/05/11 00:40:03;;;;;;;9.70;8.73;;;18.00;95.10;;;;;;2071437;28;20026;-74
2022/05/11 00:41:05;;;;;;;9.82;8.93;;;18.00;95.30;;;;;;2063419;28;20574;-74
2022/05/11 00:42:06;;;;;;;9.75;8.82;;;17.90;95.10;;;;;;2071663;28;20096;-74
2022/05/11 00:43:08;;;;;;;10.32;8.85;;;18.00;95.20;;;;;;2079939;28;20086;-74
2022/05/11 00:44:12;;;;;;;10.27;8.73;;;17.90;95.10;;;;;;2071481;28;20109;-73
2022/05/11 00:45:13;;;;;;;9.70;8.80;;;17.90;95.20;;;;;;2072027;28;20029;-73
2022/05/11 00:46:33;;;;;;;9.65;8.75;;;17.90;95.20;;;;;;2080327;28;20060;-73
2022/05/11 00:47:40;;;;;;;9.73;8.80;;;17.80;95.20;;;;;;2079784;28;20033;-74
2022/05/11 00:50:26;;;;;;;9.57;8.68;;;17.80;95.30;;;;;;2079798;28;20067;-73
2022/05/11 00:51:33;;;;;;;9.70;8.80;;;17.70;95.40;;;;;;2079693;28;20049;-73
2022/05/11 00:52:41;;;;;;;10.00;9.00;;;17.70;95.40;;;;;;2079733;28;20486;-74
2022/05/11 00:53:48;;;;;;;9.65;8.75;;;17.70;95.30;;;;;;2072495;28;20681;-74
2022/05/11 00:55:02;;;;;;;9.45;8.55;;;17.70;95.40;;;;;;2072094;28;20119;-74
2022/05/11 00:56:03;;;;;;;9.65;8.65;;;17.60;95.40;;;;;;2072923;28;20752;-74
2022/05/11 00:57:09;;;;;;;9.55;8.55;;;17.70;95.50;;;;;;2079607;28;20072;-74
2022/05/11 00:58:22;;;;;;;9.65;8.65;;;17.60;95.50;;;;;;2080200;28;20500;-74
2022/05/11 00:59:29;;;;;;;9.40;8.40;;;17.60;95.70;;;;;;2080286;28;20017;-74
2022/05/11 01:00:30;;;;;;;9.98;9.00;;;17.60;95.90;;;;;;2080067;28;20030;-75
2022/05/11 01:01:32;;;;;;;9.63;8.68;;;17.50;96.00;;;;;;2080249;28;20042;-74
2022/05/11 01:02:33;;;;;;;10.10;8.65;;;17.60;95.90;;;;;;2080302;28;20033;-74
2022/05/11 01:03:42;;;;;;;9.80;8.90;;;17.50;95.90;;;;;;2071209;28;20026;-74
2022/05/11 01:04:44;;;;;;;10.53;9.40;;;17.50;96.00;;;;;;2065561;28;20776;-74
2022/05/11 01:05:46;;;;;;;9.82;8.82;;;17.50;95.90;;;;;;2071397;28;20343;-74
2022/05/11 01:06:47;;;;;;;9.82;8.93;;;17.50;96.00;;;;;;2071353;28;20030;-74
2022/05/11 01:07:49;;;;;;;9.20;8.30;;;17.50;96.00;;;;;;2079394;28;20687;-74
2022/05/11 01:08:50;;;;;;;9.38;8.32;;;17.50;96.10;;;;;;2080082;28;20037;-74
2022/05/11 01:09:56;;;;;;;9.40;8.50;;;17.40;96.30;;;;;;2080014;28;20525;-74
2022/05/11 01:10:59;;;;;;;9.00;8.20;;;17.40;96.20;;;;;;2079400;28;20040;-74
2022/05/11 01:12:01;;;;;;;9.40;8.50;;;17.40;96.30;;;;;;2071515;28;20044;-74
2022/05/11 01:13:08;;;;;;;9.80;8.90;;;17.40;96.20;;;;;;2079479;28;20491;-74
2022/05/11 01:14:11;;;;;;;11.40;9.68;;;17.40;96.20;;;;;;2079878;28;20060;-73
2022/05/11 01:15:14;;;;;;;10.68;9.57;;;17.40;96.10;;;;;;2079337;28;20026;-74
2022/05/11 01:16:14;;;;;;;10.73;9.63;;;17.40;96.10;;;;;;2079441;28;20725;-74
2022/05/11 01:17:16;;;;;;;10.38;9.38;;;17.40;96.30;;;;;;2079369;28;20605;-74
2022/05/11 01:18:18;;;;;;;9.82;8.88;;;17.40;96.40;;;;;;2062882;28;20116;-74
2022/05/11 01:19:24;;;;;;;10.15;8.85;;;17.30;96.50;;;;;;2071437;28;20117;-74
2022/05/11 01:20:28;;;;;;;10.57;9.48;;;17.40;96.60;;;;;;2080024;28;20394;-74
2022/05/11 01:21:46;;;;;;;10.85;9.25;;;17.40;96.60;;;;;;2079957;28;20369;-74
2022/05/11 01:23:13;;;;;;;10.20;9.20;;;17.30;96.50;;;;;;2080057;28;20045;-74
2022/05/11 01:24:33;;;;;;;10.18;9.18;;;17.40;96.50;;;;;;2079261;28;20038;-74
2022/05/11 01:25:33;;;;;;;10.00;9.10;;;17.40;96.70;;;;;;2079591;28;20036;-74
2022/05/11 01:26:34;;;;;;;10.63;9.52;;;17.30;96.70;;;;;;2079298;28;20140;-73
2022/05/11 01:27:41;;;;;;;10.55;9.55;;;17.30;96.80;;;;;;2079771;28;20040;-73
2022/05/11 01:28:44;;;;;;;10.85;9.80;;;17.30;96.80;;;;;;2079790;28;20037;-73
2022/05/11 01:29:45;;;;;;;11.45;9.65;;;17.40;96.90;;;;;;2079602;28;20559;-73
2022/05/11 01:30:48;;;;;;;10.25;9.25;;;17.30;96.80;;;;;;2080394;28;20037;-73
2022/05/11 01:31:50;;;;;;;12.45;9.90;;;17.40;96.90;;;;;;2080294;28;20040;-74
2022/05/11 01:32:53;;;;;;;10.93;9.82;;;17.30;96.80;;;;;;2080507;28;20328;-73
2022/05/11 01:33:54;;;;;;;10.98;9.88;;;17.30;96.70;;;;;;2071659;28;20468;-75
2022/05/11 01:35:19;;;;;;;11.10;10.00;;;17.40;96.70;;;;;;2070974;28;20065;-74
2022/05/11 01:36:27;;;;;;;11.38;10.27;;;17.40;96.60;;;;;;2080060;28;20060;-74
2022/05/11 01:37:29;;;;;;;10.88;9.85;;;17.40;97.10;;;;;;2079700;28;20380;-74
2022/05/11 01:38:37;;;;;;;10.18;9.27;;;17.40;96.80;;;;;;2071215;28;20030;-74
2022/05/11 01:39:37;;;;;;;10.32;9.20;;;17.30;96.90;;;;;;2079522;28;20676;-74
2022/05/11 01:40:38;;;;;;;11.27;10.07;;;17.40;97.00;;;;;;2079406;28;20049;-74
2022/05/11 01:41:51;;;;;;;10.50;9.45;;;17.30;97.00;;;;;;2079566;28;20036;-74
2022/05/11 01:42:52;;;;;;;10.75;9.65;;;17.30;97.00;;;;;;2080348;28;20090;-73
2022/05/11 01:43:53;;;;;;;9.85;8.95;;;17.40;97.00;;;;;;2079364;28;20049;-74
2022/05/11 01:44:54;;;;;;;11.02;8.93;;;17.30;97.10;;;;;;2079264;28;20112;-75
2022/05/11 01:45:55;;;;;;;10.50;9.18;;;17.30;97.10;;;;;;2079808;28;20222;-73
2022/05/11 01:46:59;;;;;;;9.60;8.70;;;17.30;97.10;;;;;;2079843;28;20025;-73
2022/05/11 01:48:00;;;;;;;9.73;8.82;;;17.30;97.20;;;;;;2079551;28;20059;-74
2022/05/11 01:49:01;;;;;;;9.30;8.50;;;17.30;97.20;;;;;;2079151;28;20090;-74
2022/05/11 01:50:02;;;;;;;9.65;8.75;;;17.30;97.30;;;;;;2070960;28;20033;-72
2022/05/11 01:51:03;;;;;;;9.77;8.88;;;17.30;97.40;;;;;;2079181;28;20033;-73
2022/05/11 01:52:04;;;;;;;9.55;8.68;;;17.30;97.40;;;;;;2079776;28;20037;-73
2022/05/11 01:53:06;;;;;;;10.15;8.75;;;17.30;97.60;;;;;;2079245;28;20045;-73
2022/05/11 01:54:07;;;;;;;9.02;8.13;;;17.30;97.70;;;;;;2078961;28;20037;-73
2022/05/11 01:55:08;;;;;;;9.50;8.60;;;17.20;97.70;;;;;;2079863;28;20112;-73
2022/05/11 01:56:09;;;;;;;9.70;8.60;;;17.20;97.70;;;;;;2079188;28;20032;-73
2022/05/11 01:57:09;;;;;;;9.80;8.80;;;17.20;97.70;;;;;;2071158;28;20037;-73
2022/05/11 01:58:11;;;;;;;10.15;9.23;;;17.20;97.70;;;;;;2079230;28;20795;-73
2022/05/11 01:59:12;;;;;;;9.30;8.43;;;17.20;97.80;;;;;;2079272;28;20033;-73
2022/05/11 02:00:13;;;;;;;10.05;9.05;;;17.20;97.90;;;;;;2079630;28;20029;-73
2022/05/11 02:01:15;;;;;;;9.57;8.68;;;17.10;98.00;;;;;;2079161;28;20630;-73
2022/05/11 02:02:16;;;;;;;10.15;9.15;;;17.10;98.20;;;;;;2078618;28;20040;-73
2022/05/11 02:03:18;;;;;;;9.50;8.60;;;17.10;98.20;;;;;;2078423;28;20032;-72
2022/05/11 02:08:17;;;;;;;9.95;8.95;;;17.10;98.40;;;;;;2079740;28;20029;-73
2022/05/11 02:09:18;;;;;;;10.23;9.25;;;17.00;98.50;;;;;;2079945;28;20551;-73
2022/05/11 02:10:20;;;;;;;9.35;8.55;;;17.00;98.70;;;;;;2079655;28;20022;-72
2022/05/11 02:11:21;;;;;;;10.50;8.85;;;17.00;98.60;;;;;;2079935;28;20025;-73
2022/05/11 02:12:22;;;;;;;9.18;8.38;;;17.00;98.60;;;;;;2079816;28;20037;-73
2022/05/11 02:13:23;;;;;;;10.05;9.05;;;17.00;98.70;;;;;;2070949;28;20065;-72
2022/05/11 02:14:23;;;;;;;9.70;8.75;;;17.00;98.70;;;;;;2070649;28;20037;-72
2022/05/11 02:15:25;;;;;;;9.90;8.90;;;17.00;98.80;;;;;;2079075;28;20018;-73
2022/05/11 02:16:26;;;;;;;9.73;8.77;;;16.90;98.80;;;;;;2079230;28;20080;-72
2022/05/11 02:17:27;;;;;;;9.95;9.00;;;16.90;98.90;;;;;;2079718;28;20044;-73
2022/05/11 02:18:28;;;;;;;9.73;8.82;;;16.90;99.10;;;;;;2079631;28;20064;-72
2022/05/11 02:19:30;;;;;;;9.73;8.82;;;16.90;99.20;;;;;;2070996;28;20037;-73
2022/05/11 02:20:31;;;;;;;9.95;9.05;;;16.90;99.40;;;;;;2070961;28;20033;-72
2022/05/11 02:21:31;;;;;;;9.43;8.63;;;16.90;99.50;;;;;;2079674;28;20037;-73
2022/05/11 02:22:32;;;;;;;9.55;8.65;;;16.90;99.50;;;;;;2079624;28;20030;-72
2022/05/11 02:23:34;;;;;;;9.63;8.77;;;16.90;99.40;;;;;;2078586;28;20037;-73
2022/05/11 02:24:34;;;;;;;9.45;8.63;;;16.90;99.80;;;;;;2078802;28;20466;-73
2022/05/11 02:25:35;;;;;;;9.52;8.68;;;16.90;99.50;;;;;;2079521;28;20040;-73
2022/05/11 02:26:35;;;;;;;9.88;8.88;;;16.90;99.50;;;;;;2079951;28;20034;-73
2022/05/11 02:27:36;;;;;;;9.55;8.65;;;16.90;99.60;;;;;;2080081;28;20032;-73
2022/05/11 02:28:38;;;;;;;10.25;8.88;;;16.90;99.80;;;;;;2071484;28;20107;-73
2022/05/11 02:29:38;;;;;;;9.80;8.90;;;16.80;99.70;;;;;;2071203;28;20036;-73
2022/05/11 02:30:40;;;;;;;10.85;9.85;;;16.90;99.70;;;;;;2079258;28;20037;-73
2022/05/11 02:31:41;;;;;;;11.07;9.98;;;16.90;99.60;;;;;;2071048;28;20044;-73
2022/05/11 02:32:41;;;;;;;10.20;9.30;;;16.90;99.50;;;;;;2062792;28;20026;-73
2022/05/11 02:33:42;;;;;;;10.18;9.25;;;16.90;99.40;;;;;;2070685;28;20072;-73
2022/05/11 02:36:02;;;;;;;10.30;9.30;;;16.90;99.20;;;;;;2073121;28;20124;-72
2022/05/11 02:37:03;;;;;;;10.20;9.30;;;16.90;99.20;;;;;;2070671;28;20038;-73
2022/05/11 02:38:07;;;;;;;9.55;8.75;;;16.90;99.30;;;;;;2062450;28;20029;-72
2022/05/11 02:39:08;;;;;;;11.70;10.57;;;16.90;99.20;;;;;;2062983;28;20071;-73
2022/05/11 02:40:10;;;;;;;11.20;10.13;;;17.00;99.10;;;;;;2070840;28;20170;-72
2022/05/11 02:41:11;;;;;;;11.88;10.68;;;17.00;98.90;;;;;;2079558;28;20022;-73
2022/05/11 02:42:13;;;;;;;11.35;10.07;;;17.00;98.60;;;;;;2079858;28;20037;-73
2022/05/11 02:43:15;;;;;;;11.20;10.10;;;17.00;98.50;;;;;;2078837;28;20052;-73
2022/05/11 02:44:16;;;;;;;11.13;10.02;;;17.00;98.60;;;;;;2070624;28;20042;-72
2022/05/11 02:45:17;;;;;;;10.75;9.70;;;17.00;98.50;;;;;;2070733;28;20084;-72
2022/05/11 02:46:23;;;;;;;10.88;9.77;;;17.00;98.60;;;;;;2063237;28;20076;-73
2022/05/11 02:47:24;;;;;;;9.98;9.07;;;17.00;98.60;;;;;;2063532;28;20077;-72
2022/05/11 02:48:25;;;;;;;10.25;9.20;;;17.00;98.60;;;;;;2079207;28;20026;-73
2022/05/11 02:49:26;;;;;;;10.23;9.00;;;17.00;98.60;;;;;;2071048;28;20053;-72
2022/05/11 02:50:36;;;;;;;9.88;8.77;;;17.00;98.70;;;;;;2079083;28;20112;-72
2022/05/11 02:51:38;;;;;;;10.57;9.57;;;17.10;98.70;;;;;;2078690;28;20033;-72
2022/05/11 02:52:39;;;;;;;10.13;9.13;;;17.00;98.70;;;;;;2078844;28;20138;-72
2022/05/11 02:53:40;;;;;;;9.80;8.90;;;17.00;98.60;;;;;;2078896;28;20547;-72
2022/05/11 02:54:48;;;;;;;9.77;8.88;;;17.00;98.80;;;;;;2078853;28;20033;-72
2022/05/11 02:55:52;;;;;;;9.95;9.05;;;17.10;98.90;;;;;;2079598;28;20045;-72
2022/05/11 02:56:52;;;;;;;9.90;8.90;;;17.10;98.90;;;;;;2079544;28;20028;-72
2022/05/11 02:57:53;;;;;;;10.15;9.15;;;17.10;98.90;;;;;;2079478;28;20571;-72
2022/05/11 02:58:54;;;;;;;10.05;9.05;;;17.10;98.90;;;;;;2079671;28;20033;-73
2022/05/11 02:59:54;;;;;;;9.95;8.95;;;17.10;98.90;;;;;;2079701;28;20083;-72
2022/05/11 03:00:58;;;;;;;9.90;8.95;;;17.00;98.90;;;;;;2078953;28;20839;-72
2022/05/11 03:01:59;;;;;;;10.10;9.10;;;17.10;98.90;;;;;;2063240;28;20031;-72
2022/05/11 03:03:01;;;;;;;10.43;9.43;;;17.10;98.80;;;;;;2070946;28;20026;-72
2022/05/11 03:04:02;;;;;;;11.73;9.80;;;17.10;98.70;;;;;;2078757;28;20155;-73
2022/05/11 03:05:04;;;;;;;10.25;9.25;;;17.10;98.80;;;;;;2078902;28;20168;-73
2022/05/11 03:06:05;;;;;;;9.82;8.93;;;17.10;98.70;;;;;;2079236;28;20040;-72
2022/05/11 03:07:06;;;;;;;9.98;8.98;;;17.10;98.70;;;;;;2079718;28;20080;-73
2022/05/11 03:08:07;;;;;;;10.48;9.35;;;17.10;98.70;;;;;;2079857;28;20030;-72
2022/05/11 03:09:08;;;;;;;10.23;9.27;;;17.10;98.70;;;;;;2070727;28;20088;-72
2022/05/11 03:10:12;;;;;;;10.13;9.13;;;17.10;98.80;;;;;;2070706;28;20619;-72
2022/05/11 03:11:13;;;;;;;9.65;8.65;;;17.10;98.80;;;;;;2070857;28;20117;-72
2022/05/11 03:12:13;;;;;;;9.80;8.90;;;17.10;98.70;;;;;;2062799;28;20026;-72
2022/05/11 03:13:15;;;;;;;10.02;9.02;;;17.10;98.70;;;;;;2079132;28;20798;-72
2022/05/11 03:14:15;;;;;;;9.90;8.90;;;17.10;98.70;;;;;;2079394;28;20033;-72
2022/05/11 03:15:16;;;;;;;10.10;9.10;;;17.10;98.60;;;;;;2072506;28;20036;-73
2022/05/11 03:16:17;;;;;;;10.30;9.27;;;17.10;98.50;;;;;;2080345;28;20040;-72
2022/05/11 03:17:18;;;;;;;9.52;8.60;;;17.10;98.60;;;;;;2072250;28;20385;-73
2022/05/11 03:18:18;;;;;;;9.82;8.82;;;17.10;98.60;;;;;;2072377;28;20041;-72
2022/05/11 03:19:19;;;;;;;10.20;9.20;;;17.10;98.70;;;;;;2080260;28;20033;-72
2022/05/11 03:20:22;;;;;;;10.43;9.43;;;17.10;98.80;;;;;;2080586;28;20807;-73
2022/05/11 03:21:24;;;;;;;9.95;8.95;;;17.10;98.70;;;;;;2081271;28;20033;-72
2022/05/11 03:22:25;;;;;;;10.07;9.00;;;17.10;98.80;;;;;;2080587;28;20134;-72
2022/05/11 03:23:27;;;;;;;9.68;8.70;;;17.10;98.70;;;;;;2080544;28;20037;-72
2022/05/11 03:24:27;;;;;;;9.60;8.73;;;17.10;98.70;;;;;;2080843;28;20037;-72
2022/05/11 03:25:28;;;;;;;10.15;9.15;;;17.10;98.70;;;;;;2081114;28;20033;-73
2022/05/11 03:26:29;;;;;;;9.93;8.93;;;17.10;98.70;;;;;;2081140;28;20048;-73
2022/05/11 03:27:29;;;;;;;10.23;9.23;;;17.10;98.50;;;;;;2081060;28;20025;-73
2022/05/11 03:28:30;;;;;;;10.55;9.55;;;17.20;98.40;;;;;;2080379;28;20054;-73
2022/05/11 03:29:31;;;;;;;10.40;9.35;;;17.20;98.20;;;;;;2080500;28;20404;-72
2022/05/11 03:30:32;;;;;;;10.02;9.07;;;17.20;98.10;;;;;;2081030;28;20452;-73
2022/05/11 03:31:33;;;;;;;10.60;9.32;;;17.20;98.10;;;;;;2080894;28;20068;-72
2022/05/11 03:35:12;;;;;;;11.10;9.10;;;17.20;98.20;;;;;;2074787;28;20145;-72
2022/05/11 03:36:13;;;;;;;10.07;9.07;;;17.20;98.30;;;;;;2080491;28;20092;-72
2022/05/11 03:37:17;;;;;;;10.15;9.07;;;17.20;98.30;;;;;;2081297;28;20540;-72
2022/05/11 03:38:18;;;;;;;10.15;8.90;;;17.20;98.30;;;;;;2080945;28;20029;-72
2022/05/11 03:39:18;;;;;;;10.80;9.18;;;17.20;98.50;;;;;;2080517;28;20365;-72
2022/05/11 03:40:19;;;;;;;9.85;8.85;;;17.20;98.60;;;;;;2080436;28;20071;-72
2022/05/11 03:41:20;;;;;;;9.73;8.93;;;17.20;98.60;;;;;;2080486;28;20035;-72
2022/05/11 03:42:22;;;;;;;10.00;9.00;;;17.20;98.60;;;;;;2080499;28;20025;-72
2022/05/11 03:43:23;;;;;;;9.95;9.05;;;17.20;98.60;;;;;;2081238;28;20095;-72
2022/05/11 03:44:23;;;;;;;10.07;9.07;;;17.20;98.60;;;;;;2081080;28;20038;-72
2022/05/11 03:45:25;;;;;;;10.77;9.05;;;17.20;98.60;;;;;;2080656;28;20025;-72
2022/05/11 03:46:26;;;;;;;10.40;9.48;;;17.30;98.70;;;;;;2080491;28;20546;-73
2022/05/11 03:47:26;;;;;;;11.00;9.38;;;17.30;98.60;;;;;;2081177;28;20087;-73
2022/05/11 03:48:27;;;;;;;9.68;8.70;;;17.30;98.90;;;;;;2081119;28;20025;-73
2022/05/11 03:49:28;;;;;;;10.18;9.10;;;17.30;98.50;;;;;;2081235;28;20111;-73
2022/05/11 03:50:29;;;;;;;9.60;8.70;;;17.30;98.40;;;;;;2081042;28;20108;-73
2022/05/11 03:51:30;;;;;;;10.35;8.88;;;17.30;98.60;;;;;;2080458;28;20736;-73
2022/05/11 03:52:30;;;;;;;9.98;9.00;;;17.30;98.20;;;;;;2080549;28;20074;-74
2022/05/11 03:53:32;;;;;;;10.10;9.10;;;17.30;98.10;;;;;;2081036;28;20068;-73
2022/05/11 03:54:33;;;;;;;10.00;9.00;;;17.40;97.90;;;;;;2080398;28;20040;-73
2022/05/11 03:55:34;;;;;;;10.32;9.32;;;17.40;97.80;;;;;;2071923;28;20105;-73
2022/05/11 03:56:34;;;;;;;10.18;9.18;;;17.40;97.70;;;;;;2080050;28;20112;-73
2022/05/11 03:57:37;;;;;;;10.07;9.00;;;17.40;97.80;;;;;;2080296;28;20120;-71
2022/05/11 03:58:38;;;;;;;9.82;8.82;;;17.40;97.80;;;;;;2080783;28;20053;-73
2022/05/11 03:59:38;;;;;;;9.73;8.73;;;17.40;97.80;;;;;;2080665;28;20076;-72
2022/05/11 04:00:39;;;;;;;9.95;9.00;;;17.50;97.80;;;;;;2080593;28;20036;-73
2022/05/11 04:01:40;;;;;;;9.45;8.65;;;17.50;97.80;;;;;;2080257;28;20450;-73
2022/05/11 04:02:41;;;;;;;9.52;8.63;;;17.50;97.80;;;;;;2080335;28;20026;-70
2022/05/11 04:03:42;;;;;;;9.35;8.55;;;17.50;97.80;;;;;;2080358;28;20030;-74
2022/05/11 04:04:43;;;;;;;9.13;8.27;;;17.50;97.90;;;;;;2080061;28;20116;-71
2022/05/11 04:05:43;;;;;;;9.15;8.32;;;17.50;97.80;;;;;;2071905;28;20026;-72
2022/05/11 04:06:45;;;;;;;10.10;9.10;;;17.50;97.80;;;;;;2080207;28;20048;-72
2022/05/11 04:07:46;;;;;;;9.80;8.80;;;17.50;97.70;;;;;;2080060;28;20025;-72
2022/05/11 04:08:46;;;;;;;9.93;9.02;;;17.50;97.80;;;;;;2080013;28;20029;-72
2022/05/11 04:09:47;;;;;;;9.73;8.73;;;17.60;97.80;;;;;;2080198;28;20443;-72
2022/05/11 04:10:48;;;;;;;9.90;8.90;;;17.60;97.70;;;;;;2071706;28;20076;-74
2022/05/11 04:11:48;;;;;;;12.20;9.13;;;17.60;97.70;;;;;;2071841;28;20121;-72
2022/05/11 04:12:49;;;;;;;11.52;9.10;;;17.60;97.60;;;;;;2071964;28;20129;-72
2022/05/11 04:13:50;;;;;;;9.75;8.75;;;17.70;97.60;;;;;;2072086;28;20068;-72
2022/05/11 04:14:51;;;;;;;9.75;8.77;;;17.70;97.60;;;;;;2080000;28;20057;-72
2022/05/11 04:15:52;;;;;;;9.70;8.70;;;17.80;97.50;;;;;;2080183;28;20080;-72
2022/05/11 04:16:59;;;;;;;9.98;8.95;;;17.80;97.40;;;;;;2080081;28;20036;-72
2022/05/11 04:18:00;;;;;;;9.65;8.75;;;17.90;97.30;;;;;;2080036;28;20041;-72
2022/05/11 04:19:01;;;;;;;9.90;9.00;;;17.90;97.20;;;;;;2071962;28;20033;-72
2022/05/11 04:20:04;;;;;;;9.95;8.93;;;17.90;97.00;;;;;;2080191;28;20524;-72
2022/05/11 04:21:05;;;;;;;9.93;8.90;;;17.90;97.00;;;;;;2079936;28;20025;-72
2022/05/11 04:22:06;;;;;;;9.40;8.50;;;18.00;96.90;;;;;;2079913;28;20021;-72
2022/05/11 04:23:06;;;;;;;9.55;8.40;;;18.00;96.80;;;;;;2080635;28;20059;-72
2022/05/11 04:24:07;;;;;;;9.75;8.65;;;18.00;96.80;;;;;;2079923;28;20047;-72
2022/05/11 04:25:10;;;;;;;9.05;8.25;;;18.00;96.80;;;;;;2080180;28;20462;-71
2022/05/11 04:26:13;;;;;;;9.27;8.38;;;18.00;96.70;;;;;;2079877;28;20025;-72
2022/05/11 04:27:13;;;;;;;9.88;8.95;;;18.10;96.70;;;;;;2080195;28;20064;-72
2022/05/11 04:28:14;;;;;;;9.60;8.70;;;18.00;96.60;;;;;;2080245;28;20056;-72
2022/05/11 04:29:15;;;;;;;9.82;8.88;;;18.10;96.60;;;;;;2080878;28;20053;-72
2022/05/11 04:30:19;;;;;;;9.35;8.32;;;18.00;96.50;;;;;;2080690;28;20450;-73
2022/05/11 04:31:19;;;;;;;11.48;8.88;;;18.10;96.50;;;;;;2080655;28;20032;-73
2022/05/11 04:32:20;;;;;;;10.07;8.77;;;18.10;96.50;;;;;;2080109;28;20048;-73
2022/05/11 04:33:21;;;;;;;9.65;8.65;;;18.10;96.50;;;;;;2080148;28;20057;-73
2022/05/11 04:34:22;;;;;;;10.00;9.00;;;18.10;96.40;;;;;;2080645;28;20033;-73
2022/05/11 04:35:23;;;;;;;9.70;8.70;;;18.10;96.30;;;;;;2080664;28;20056;-73
2022/05/11 04:36:24;;;;;;;9.75;8.75;;;18.10;96.20;;;;;;2080544;28;20472;-73
2022/05/11 04:37:25;;;;;;;9.38;8.48;;;18.10;96.20;;;;;;2080164;28;20056;-73
2022/05/11 04:38:25;;;;;;;9.30;8.40;;;18.10;96.20;;;;;;2063521;28;20619;-73
2022/05/11 04:39:26;;;;;;;10.82;8.88;;;18.10;96.20;;;;;;2071810;28;20022;-72
2022/05/11 04:40:28;;;;;;;9.70;8.80;;;18.20;96.20;;;;;;2079478;28;20033;-73
2022/05/11 04:41:29;;;;;;;9.43;8.52;;;18.20;96.20;;;;;;2080017;28;20026;-72
2022/05/11 04:42:30;;;;;;;14.07;9.85;;;18.20;96.10;;;;;;2080006;28;20037;-73
2022/05/11 04:43:30;;;;;;;9.77;8.88;;;18.20;96.20;;;;;;2080658;28;20020;-72
2022/05/11 04:44:31;;;;;;;10.48;9.48;;;18.20;96.20;;;;;;2080208;28;20060;-72
2022/05/11 04:45:32;;;;;;;9.73;8.73;;;18.30;96.00;;;;;;2080011;28;20515;-72
2022/05/11 04:46:35;;;;;;;10.45;8.75;;;18.30;95.90;;;;;;2079916;28;20530;-72
2022/05/11 04:47:36;;;;;;;10.18;9.23;;;18.30;95.90;;;;;;2080683;28;20037;-72
2022/05/11 04:48:36;;;;;;;10.40;9.40;;;18.30;95.90;;;;;;2080514;28;20029;-73
2022/05/11 04:49:38;;;;;;;10.27;8.90;;;18.30;95.80;;;;;;2080521;28;20029;-71
2022/05/11 04:50:42;;;;;;;9.75;8.85;;;18.30;95.70;;;;;;2080486;28;20071;-74
2022/05/11 04:51:51;;;;;;;10.40;9.32;;;18.40;95.60;;;;;;2080329;28;20113;-72
2022/05/11 04:52:52;;;;;;;9.40;8.50;;;18.40;95.40;;;;;;2079974;28;20548;-73
2022/05/11 04:53:53;;;;;;;9.50;8.65;;;18.40;95.30;;;;;;2079887;28;20287;-71
2022/05/11 04:54:53;;;;;;;12.65;9.20;;;18.50;95.20;;;;;;2080281;28;20025;-72
2022/05/11 04:55:55;;;;;;;9.80;8.80;;;18.50;95.00;;;;;;2080725;28;20522;-71
2022/05/11 04:56:55;;;;;;;9.85;8.93;;;18.50;94.80;;;;;;2080431;28;20079;-74
2022/05/11 04:57:56;;;;;;;9.75;8.85;;;18.60;94.70;;;;;;2079811;28;20451;-74
2022/05/11 04:59:00;;;;;;;10.05;9.05;;;18.60;94.70;;;;;;2079853;28;20067;-73
2022/05/11 05:00:04;;;;;;;9.70;8.75;;;18.60;94.70;;;;;;2071810;28;20085;-74
2022/05/11 05:01:07;;;;;;;9.45;8.55;;;18.70;94.70;;;;;;2072203;28;20480;-74
2022/05/11 05:02:15;;;;;;;10.05;8.63;;;18.70;94.70;;;;;;2071757;28;20034;-73
2022/05/11 05:03:17;;;;;;;10.02;8.85;;;18.70;94.90;;;;;;2064789;28;20414;-73
2022/05/11 05:04:19;;;;;;;9.73;8.82;;;18.70;94.70;;;;;;2063525;28;20088;-73
2022/05/11 05:05:20;;;;;;;10.68;9.57;;;18.80;94.90;;;;;;2079781;28;20033;-74
2022/05/11 05:06:21;;;;;;;10.13;9.02;;;18.80;95.00;;;;;;2079860;28;20086;-74
2022/05/11 05:07:26;;;;;;;11.80;8.95;;;18.80;94.80;;;;;;2079607;28;20491;-74
2022/05/11 05:08:27;;;;;;;9.65;8.75;;;18.80;94.40;;;;;;2079701;28;20487;-72
2022/05/11 05:09:27;;;;;;;10.10;9.02;;;18.90;94.20;;;;;;2079939;28;20035;-72
2022/05/11 05:10:31;;;;;;;12.05;9.27;;;18.90;94.00;;;;;;2079697;28;20042;-74
2022/05/11 05:11:33;;;;;;;10.63;9.15;;;19.00;93.90;;;;;;2079795;28;20519;-71
2022/05/11 05:12:34;;;;;;;9.82;8.80;;;19.00;93.80;;;;;;2071693;28;20539;-74
2022/05/11 05:13:37;;;;;;;10.88;9.13;;;19.00;93.70;;;;;;2072004;28;20034;-72
2022/05/11 05:14:42;;;;;;;10.10;9.10;;;19.20;93.40;;;;;;2071566;28;20037;-74
2022/05/11 05:15:45;;;;;;;10.10;8.85;;;19.20;93.20;;;;;;2079884;28;20033;-72
2022/05/11 05:16:46;;;;;;;36.28;10.25;;;19.30;93.10;;;;;;2080001;28;20034;-73
2022/05/11 05:17:51;;;;;;;21.17;9.55;;;19.30;93.00;;;;;;2079656;28;20029;-73
2022/05/11 05:18:52;;;;;;;15.07;9.25;;;19.40;92.90;;;;;;2072328;28;20034;-73
2022/05/11 05:19:56;;;;;;;11.40;8.70;;;19.50;92.70;;;;;;2079748;28;20021;-75
2022/05/11 05:20:57;;;;;;;12.10;8.35;;;19.60;92.50;;;;;;2079848;28;20052;-74
2022/05/11 05:22:02;;;;;;;9.13;8.07;;;19.60;92.40;;;;;;2079602;28;20032;-74
2022/05/11 05:23:03;;;;;;;12.38;8.50;;;19.70;92.20;;;;;;2080259;28;20246;-74
2022/05/11 05:24:04;;;;;;;10.93;8.50;;;19.90;91.80;;;;;;2071377;28;20036;-74
2022/05/11 05:25:06;;;;;;;9.90;8.70;;;20.10;91.50;;;;;;2071480;28;20037;-74
2022/05/11 05:26:10;;;;;;;11.32;8.60;;;20.20;90.80;;;;;;2079831;28;20057;-74
2022/05/11 05:27:16;;;;;;;11.68;9.27;;;20.40;90.00;;;;;;2073351;28;20045;-74
2022/05/11 05:31:09;;;;;;;11.30;8.85;;;21.00;86.10;;;;;;2080100;28;20113;-74
2022/05/11 05:32:10;;;;;;;10.73;8.98;;;21.30;84.50;;;;;;2080281;28;20458;-74
2022/05/11 05:33:10;;;;;;;11.63;8.73;;;21.60;83.20;;;;;;2080151;28;20037;-74